Terminal Aerodrome Forecast
Issued by NWS

Home | Current Version | Previous Version | Text Only | Print | Product List | Glossary On
Versions: 1 2 3 4 5 6 7 8 9 10 11 12 13 14 15
644
FTUS46 KMTR 232323
TAFOAK
TAF
KOAK 232323Z 2400/2506 28004KT P6SM FEW040 SCT100 OVC180
     FM240400 31003KT P6SM SCT015 BKN100
     FM240900 33004KT P6SM BKN015
     FM241100 33003KT 4SM BR OVC009
     FM241800 28003KT P6SM FEW010 BKN150 OVC200
     FM242000 29006KT P6SM FEW010 BKN150
     FM250000 31005KT P6SM BKN120=

USA.gov is the U.S. government's official web portal to all federal, state and local government web resources and services.